createdAt,value
2023-03-11T00:01:57.889Z,10.44
2023-03-11T00:06:59.783Z,10.46
2023-03-11T00:12:02.642Z,10.42
2023-03-11T00:17:04.307Z,10.38
2023-03-11T00:22:06.438Z,10.32
2023-03-11T00:27:08.234Z,10.28
2023-03-11T00:32:09.966Z,10.31
2023-03-11T00:37:11.987Z,10.27
2023-03-11T00:42:13.616Z,10.16
2023-03-11T00:47:15.240Z,10.15
2023-03-11T00:52:17.062Z,10.12
2023-03-11T00:57:18.620Z,9.52
2023-03-11T01:02:20.872Z,9.39
2023-03-11T01:07:23.900Z,9.15
2023-03-11T01:12:25.685Z,8.97
2023-03-11T01:17:27.379Z,8.82
2023-03-11T01:22:29.004Z,8.76
2023-03-11T01:27:31.092Z,8.77
2023-03-11T01:32:32.912Z,8.70
2023-03-11T01:37:34.735Z,8.61
2023-03-11T01:42:36.438Z,8.62
2023-03-11T01:47:40.095Z,8.65
2023-03-11T01:52:44.904Z,8.65
2023-03-11T01:57:47.805Z,8.68
2023-03-11T02:02:55.511Z,8.62
2023-03-11T02:07:58.238Z,8.58
2023-03-11T02:13:04.474Z,8.51
2023-03-11T02:18:08.278Z,8.42
2023-03-11T02:23:13.139Z,8.35
2023-03-11T02:28:18.163Z,8.09
2023-03-11T02:33:20.103Z,7.78
2023-03-11T02:38:24.272Z,7.56
2023-03-11T02:43:43.479Z,7.35
2023-03-11T02:48:47.835Z,7.23
2023-03-11T02:53:53.059Z,7.13
2023-03-11T02:58:55.903Z,7.07
2023-03-11T03:03:57.992Z,6.98
2023-03-11T03:09:00.184Z,6.83
2023-03-11T03:14:01.964Z,6.78
2023-03-11T03:19:03.772Z,6.75
2023-03-11T03:24:05.841Z,6.62
2023-03-11T03:29:07.812Z,6.67
2023-03-11T03:34:10.022Z,6.62
2023-03-11T03:39:12.052Z,6.65
2023-03-11T03:44:13.732Z,6.55
2023-03-11T03:49:15.665Z,6.48
2023-03-11T03:54:18.736Z,6.51
2023-03-11T03:59:20.566Z,6.42
2023-03-11T04:04:27.407Z,6.38
2023-03-11T04:09:29.977Z,6.19
2023-03-11T04:14:31.756Z,6.10
2023-03-11T04:19:35.738Z,5.93
2023-03-11T04:24:37.699Z,5.79
2023-03-11T04:29:39.589Z,5.78
2023-03-11T04:34:42.019Z,5.67
2023-03-11T04:39:44.159Z,5.52
2023-03-11T04:44:46.029Z,5.44
2023-03-11T04:49:47.725Z,5.35
2023-03-11T04:54:49.468Z,5.33
2023-03-11T04:59:52.642Z,5.22
2023-03-11T05:04:54.404Z,5.03
2023-03-11T05:09:56.186Z,5.11
2023-03-11T05:14:58.351Z,5.08
2023-03-11T05:20:00.285Z,4.97
2023-03-11T05:25:07.449Z,4.95
2023-03-11T05:30:10.135Z,4.93
2023-03-11T05:35:15.062Z,4.86
2023-03-11T05:40:17.320Z,4.90
2023-03-11T05:45:19.587Z,4.87
2023-03-11T05:50:24.329Z,4.88
2023-03-11T05:55:27.533Z,4.90
2023-03-11T06:00:29.835Z,4.89
2023-03-11T06:05:35.665Z,5.04
2023-03-11T06:10:37.885Z,5.07
2023-03-11T06:15:39.937Z,5.15
2023-03-11T06:20:41.897Z,5.18
2023-03-11T06:25:43.699Z,5.19
2023-03-11T06:30:46.196Z,5.33
2023-03-11T06:36:00.908Z,5.44
2023-03-11T06:41:04.987Z,5.52
2023-03-11T06:46:13.507Z,5.64
2023-03-11T06:51:15.921Z,5.77
2023-03-11T06:56:19.328Z,5.83
2023-03-11T07:01:26.395Z,5.89
2023-03-11T07:06:30.175Z,5.92
2023-03-11T07:11:38.586Z,6.11
2023-03-11T07:16:45.466Z,6.14
2023-03-11T07:22:02.538Z,6.23
2023-03-11T07:27:04.402Z,6.24
2023-03-11T07:32:09.396Z,6.26
2023-03-11T07:37:11.214Z,6.32
2023-03-11T07:42:12.848Z,6.54
2023-03-11T07:47:14.480Z,6.61
2023-03-11T07:52:16.093Z,6.75
2023-03-11T07:57:17.732Z,6.53
2023-03-11T08:02:19.409Z,6.81
2023-03-11T08:07:53.638Z,6.83
2023-03-11T08:13:19.336Z,6.97
2023-03-11T08:18:29.407Z,7.08
2023-03-11T08:23:32.983Z,7.35
2023-03-11T08:28:36.946Z,7.35
2023-03-11T08:33:38.721Z,7.45
2023-03-11T08:38:40.938Z,7.49
2023-03-11T08:43:44.540Z,7.34
2023-03-11T08:48:46.364Z,7.49
2023-03-11T08:53:48.906Z,7.42
2023-03-11T08:58:51.088Z,7.65
2023-03-11T09:03:52.757Z,7.60
2023-03-11T09:08:54.433Z,7.65
2023-03-11T09:13:56.252Z,7.61
2023-03-11T09:19:00.358Z,7.88
2023-03-11T09:24:04.503Z,7.84
2023-03-11T09:29:06.323Z,7.87
2023-03-11T09:34:08.091Z,7.74
2023-03-11T09:39:10.075Z,7.91
2023-03-11T09:44:17.630Z,7.98
2023-03-11T09:49:50.296Z,7.83
2023-03-11T09:54:55.633Z,8.12
2023-03-11T09:59:58.025Z,8.17
2023-03-11T10:05:28.381Z,8.21
2023-03-11T10:10:38.392Z,8.11
2023-03-11T10:15:43.527Z,8.12
2023-03-11T10:20:49.128Z,8.35
2023-03-11T10:26:08.746Z,7.94
2023-03-11T10:31:20.203Z,7.88
2023-03-11T10:36:29.233Z,7.71
2023-03-11T10:41:58.032Z,8.00
2023-03-11T10:46:59.806Z,8.13
2023-03-11T10:52:04.079Z,8.43
2023-03-11T10:57:29.831Z,8.21
2023-03-11T11:02:49.451Z,8.28
2023-03-11T11:08:02.116Z,8.20
2023-03-11T11:13:13.164Z,8.06
2023-03-11T11:18:23.377Z,7.85
2023-03-11T11:23:39.611Z,8.30
2023-03-11T11:28:41.392Z,8.75
2023-03-11T11:33:52.481Z,9.21
2023-03-11T11:38:54.764Z,8.93
2023-03-11T11:44:00.301Z,8.31
2023-03-11T11:49:20.947Z,8.12
2023-03-11T11:54:43.076Z,8.55
2023-03-11T11:59:45.016Z,8.35
2023-03-11T12:05:06.271Z,8.17
2023-03-11T12:10:23.253Z,8.86
2023-03-11T12:15:33.836Z,8.35
2023-03-11T12:20:42.313Z,8.16
2023-03-11T12:25:55.307Z,7.95
2023-03-11T12:31:02.078Z,7.79
2023-03-11T12:36:05.597Z,8.40
2023-03-11T12:41:48.529Z,9.08
2023-03-11T12:46:59.400Z,8.23
2023-03-11T12:52:05.618Z,8.05
2023-03-11T12:57:16.450Z,7.90
2023-03-11T13:02:55.302Z,7.62
2023-03-11T13:08:09.954Z,7.41
2023-03-11T13:13:23.753Z,7.48
2023-03-11T13:18:27.968Z,7.56
2023-03-11T13:23:34.753Z,7.35
2023-03-11T13:28:39.312Z,7.23
2023-03-11T13:33:50.152Z,7.06
2023-03-11T13:39:31.518Z,7.04
2023-03-11T13:44:39.906Z,6.90
2023-03-11T13:50:03.251Z,7.14
2023-03-11T13:55:18.671Z,7.26
2023-03-11T14:00:27.955Z,6.91
2023-03-11T14:05:34.917Z,6.83
2023-03-11T14:10:36.609Z,6.69
2023-03-11T14:15:47.823Z,6.60
2023-03-11T14:20:50.094Z,6.70
2023-03-11T14:25:59.182Z,6.64
2023-03-11T14:31:03.092Z,6.62
2023-03-11T14:36:12.699Z,6.64
2023-03-11T14:41:15.595Z,6.54
2023-03-11T14:46:27.873Z,6.62
2023-03-11T14:51:33.446Z,6.65
2023-03-11T14:56:40.213Z,6.62
2023-03-11T15:01:44.581Z,6.60
2023-03-11T15:06:46.774Z,6.34
2023-03-11T15:11:58.164Z,6.28
2023-03-11T15:17:33.602Z,6.27
2023-03-11T15:22:40.906Z,6.10
2023-03-11T15:27:42.556Z,6.14
2023-03-11T15:32:45.146Z,6.16
2023-03-11T15:37:48.037Z,6.29
2023-03-11T15:43:07.284Z,6.24
2023-03-11T15:48:11.161Z,6.11
2023-03-11T15:53:12.750Z,6.16
2023-03-11T15:58:16.793Z,5.90
2023-03-11T16:03:19.150Z,5.90
2023-03-11T16:08:20.756Z,5.75
2023-03-11T16:13:22.397Z,5.67
2023-03-11T16:18:24.165Z,5.66
2023-03-11T16:23:30.740Z,5.58
2023-03-11T16:28:33.901Z,5.46
2023-03-11T16:33:38.593Z,5.44
2023-03-11T16:38:47.162Z,5.41
2023-03-11T16:43:48.923Z,5.25
2023-03-11T16:48:50.820Z,5.20
2023-03-11T16:53:52.493Z,5.26
2023-03-11T16:58:54.110Z,5.12
2023-03-11T17:03:55.762Z,4.83
2023-03-11T17:08:57.360Z,4.77
2023-03-11T17:14:13.940Z,4.76
2023-03-11T17:19:17.914Z,4.66
2023-03-11T17:24:19.630Z,4.75
2023-03-11T17:29:21.508Z,4.62
2023-03-11T17:34:23.500Z,4.63
2023-03-11T17:39:25.210Z,4.55
2023-03-11T17:44:26.816Z,4.54
2023-03-11T17:49:28.505Z,4.50
2023-03-11T17:54:30.120Z,4.44
2023-03-11T17:59:31.779Z,4.20
2023-03-11T18:04:33.443Z,4.20
2023-03-11T18:09:35.050Z,4.05
2023-03-11T18:14:36.944Z,4.04
2023-03-11T18:19:39.006Z,4.05
2023-03-11T18:24:40.617Z,4.17
2023-03-11T18:29:42.330Z,4.16
2023-03-11T18:34:44.152Z,4.06
2023-03-11T18:39:45.725Z,4.11
2023-03-11T18:44:47.333Z,4.16
2023-03-11T18:49:49.045Z,4.06
2023-03-11T18:54:50.606Z,4.09
2023-03-11T18:59:52.438Z,4.03
2023-03-11T19:04:54.401Z,4.09
2023-03-11T19:09:56.075Z,4.01
2023-03-11T19:14:57.850Z,3.97
2023-03-11T19:19:59.597Z,3.85
2023-03-11T19:25:01.412Z,3.93
2023-03-11T19:30:03.259Z,3.73
2023-03-11T19:35:05.730Z,3.66
2023-03-11T19:40:10.312Z,3.67
2023-03-11T19:45:13.031Z,3.52
2023-03-11T19:50:14.699Z,3.41
2023-03-11T19:55:16.709Z,3.26
2023-03-11T20:00:18.975Z,3.13
2023-03-11T20:05:20.757Z,3.07
2023-03-11T20:10:22.632Z,3.00
2023-03-11T20:15:24.449Z,2.98
2023-03-11T20:20:26.174Z,3.12
2023-03-11T20:25:29.662Z,3.09
2023-03-11T20:30:31.465Z,3.14
2023-03-11T20:35:33.448Z,3.11
2023-03-11T20:40:35.165Z,3.11
2023-03-11T20:45:36.908Z,3.14
2023-03-11T20:50:38.628Z,3.17
2023-03-11T20:55:43.140Z,3.22
2023-03-11T21:00:44.806Z,3.13
2023-03-11T21:05:46.428Z,3.08
2023-03-11T21:10:48.114Z,3.21
2023-03-11T21:15:49.862Z,3.12
2023-03-11T21:20:51.565Z,3.15
2023-03-11T21:26:00.944Z,3.14
2023-03-11T21:31:11.564Z,3.14
2023-03-11T21:36:17.452Z,3.23
2023-03-11T21:41:21.990Z,3.16
2023-03-11T21:46:26.958Z,3.19
2023-03-11T21:51:29.174Z,3.10
2023-03-11T21:56:30.845Z,3.11
2023-03-11T22:01:34.062Z,3.13
2023-03-11T22:06:35.817Z,3.06
2023-03-11T22:11:37.527Z,3.08
2023-03-11T22:16:39.217Z,3.06
2023-03-11T22:21:40.975Z,3.05
2023-03-11T22:26:42.585Z,2.96
2023-03-11T22:31:44.477Z,2.98
2023-03-11T22:36:46.102Z,2.98
2023-03-11T22:41:47.681Z,2.95
2023-03-11T22:46:49.253Z,2.88
2023-03-11T22:51:51.068Z,2.91
2023-03-11T22:56:52.685Z,2.87
2023-03-11T23:01:55.116Z,2.79
2023-03-11T23:06:56.683Z,2.73
2023-03-11T23:11:58.285Z,2.58
2023-03-11T23:16:59.931Z,2.48
2023-03-11T23:22:01.592Z,2.35
2023-03-11T23:27:04.877Z,2.26
2023-03-11T23:32:06.943Z,2.19
2023-03-11T23:37:08.877Z,2.10
2023-03-11T23:42:24.483Z,2.11
2023-03-11T23:47:27.570Z,1.94
2023-03-11T23:52:29.323Z,1.90
2023-03-11T23:57:30.996Z,1.87
